createdAt,value
2019-02-03T00:02:07.745Z,88.90
2019-02-03T00:04:37.184Z,87.50
2019-02-03T00:07:06.480Z,82.60
2019-02-03T00:09:36.780Z,82.47
2019-02-03T00:12:06.065Z,89.10
2019-02-03T00:14:35.325Z,87.97
2019-02-03T00:17:05.893Z,87.03
2019-02-03T00:19:36.258Z,92.83
2019-02-03T00:22:06.912Z,83.33
2019-02-03T00:24:37.264Z,88.70
2019-02-03T00:27:07.523Z,92.17
2019-02-03T00:29:36.741Z,93.00
2019-02-03T00:32:06.115Z,88.37
2019-02-03T00:34:35.505Z,89.23
2019-02-03T00:37:15.383Z,90.50
2019-02-03T00:39:35.886Z,95.10
2019-02-03T00:42:05.273Z,97.23
2019-02-03T00:44:34.555Z,94.50
2019-02-03T00:47:03.820Z,96.80
2019-02-03T00:49:33.101Z,104.13
2019-02-03T00:52:03.429Z,102.43
2019-02-03T00:54:32.861Z,97.43
2019-02-03T00:57:02.111Z,104.10
2019-02-03T00:59:31.372Z,100.63
2019-02-03T01:02:00.614Z,107.90
2019-02-03T01:04:29.865Z,106.40
2019-02-03T01:06:59.117Z,113.33
2019-02-03T01:09:28.434Z,108.07
2019-02-03T01:11:57.847Z,107.07
2019-02-03T01:14:27.163Z,103.83
2019-02-03T01:16:56.414Z,101.77
2019-02-03T01:19:25.686Z,98.77
2019-02-03T01:21:55.285Z,96.97
2019-02-03T01:24:24.601Z,107.13
2019-02-03T01:26:53.852Z,95.37
2019-02-03T01:29:23.085Z,100.57
2019-02-03T01:31:52.362Z,98.97
2019-02-03T01:34:21.599Z,95.57
2019-02-03T01:36:50.901Z,92.80
2019-02-03T01:39:20.139Z,86.20
2019-02-03T01:41:49.392Z,98.60
2019-02-03T01:44:19.598Z,95.13
2019-02-03T01:46:48.843Z,92.30
2019-02-03T01:49:18.285Z,99.93
2019-02-03T01:51:47.512Z,94.80
2019-02-03T01:54:16.767Z,94.73
2019-02-03T01:56:46.010Z,96.10
2019-02-03T01:59:15.263Z,94.03
2019-02-03T02:01:50.722Z,99.90
2019-02-03T02:04:19.993Z,89.13
2019-02-03T02:06:49.233Z,95.47
2019-02-03T02:09:19.454Z,96.00
2019-02-03T02:11:48.806Z,94.70
2019-02-03T02:14:20.054Z,95.13
2019-02-03T02:16:49.294Z,96.93
2019-02-03T02:19:18.631Z,95.23
2019-02-03T02:21:47.937Z,95.80
2019-02-03T02:24:17.205Z,91.17
2019-02-03T02:26:46.453Z,85.53
2019-02-03T02:29:15.994Z,95.63
2019-02-03T02:31:45.246Z,86.30
2019-02-03T02:34:14.548Z,87.73
2019-02-03T02:36:43.777Z,88.30
2019-02-03T02:39:13.047Z,89.77
2019-02-03T02:41:42.441Z,90.53
2019-02-03T02:44:12.596Z,95.93
2019-02-03T02:46:41.873Z,92.93
2019-02-03T02:49:11.220Z,96.30
2019-02-03T02:51:40.445Z,92.33
2019-02-03T02:54:09.675Z,88.80
2019-02-03T02:56:39.235Z,92.23
2019-02-03T02:59:08.548Z,87.03
2019-02-03T03:01:37.809Z,87.90
2019-02-03T03:04:07.067Z,92.43
2019-02-03T03:06:36.341Z,96.43
2019-02-03T03:09:08.861Z,90.73
2019-02-03T03:11:39.154Z,99.10
2019-02-03T03:14:08.426Z,94.33
2019-02-03T03:16:37.690Z,91.03
2019-02-03T03:19:06.961Z,91.23
2019-02-03T03:21:36.230Z,88.73
2019-02-03T03:24:05.562Z,90.27
2019-02-03T03:26:34.902Z,95.83
2019-02-03T03:29:04.141Z,94.80
2019-02-03T03:31:33.539Z,90.40
2019-02-03T03:34:03.160Z,103.07
2019-02-03T03:36:32.397Z,88.63
2019-02-03T03:39:01.640Z,91.27
2019-02-03T03:41:30.931Z,89.57
2019-02-03T03:44:00.185Z,88.77
2019-02-03T03:46:29.399Z,89.37
2019-02-03T03:48:58.678Z,93.00
2019-02-03T03:51:28.202Z,93.60
2019-02-03T03:53:57.451Z,92.50
2019-02-03T03:56:28.654Z,91.27
2019-02-03T03:58:57.935Z,88.67
2019-02-03T04:01:27.182Z,81.43
2019-02-03T04:03:57.901Z,87.47
2019-02-03T04:06:27.227Z,90.97
2019-02-03T04:08:57.433Z,81.07
2019-02-03T04:11:26.839Z,83.83
2019-02-03T04:13:56.137Z,86.37
2019-02-03T04:16:25.394Z,82.57
2019-02-03T04:18:55.586Z,86.27
2019-02-03T04:21:24.838Z,78.70
2019-02-03T04:23:54.170Z,90.63
2019-02-03T04:26:23.428Z,84.03
2019-02-03T04:28:52.739Z,79.87
2019-02-03T04:31:22.284Z,78.83
2019-02-03T04:33:51.576Z,84.93
2019-02-03T04:36:20.812Z,73.20
2019-02-03T04:38:57.603Z,77.97
2019-02-03T04:41:21.101Z,77.97
2019-02-03T04:43:50.433Z,77.87
2019-02-03T04:46:20.609Z,76.40
2019-02-03T04:48:49.885Z,80.60
2019-02-03T04:51:19.126Z,74.27
2019-02-03T04:53:49.330Z,70.50
2019-02-03T04:56:18.600Z,74.17
2019-02-03T04:58:48.125Z,74.43
2019-02-03T05:01:17.408Z,76.10
2019-02-03T05:03:46.662Z,76.23
2019-02-03T05:06:15.930Z,75.07
2019-02-03T05:08:45.171Z,78.20
2019-02-03T05:11:14.422Z,80.20
2019-02-03T05:13:43.686Z,80.97
2019-02-03T05:16:12.946Z,72.40
2019-02-03T05:18:43.196Z,70.73
2019-02-03T05:21:12.459Z,71.50
2019-02-03T05:23:41.707Z,73.37
2019-02-03T05:26:11.252Z,73.77
2019-02-03T05:28:40.498Z,66.47
2019-02-03T05:31:09.748Z,74.37
2019-02-03T05:33:40.006Z,79.17
2019-02-03T05:36:09.271Z,78.20
2019-02-03T05:38:38.512Z,78.57
2019-02-03T05:41:07.763Z,73.80
2019-02-03T05:43:36.996Z,71.87
2019-02-03T05:46:06.232Z,73.07
2019-02-03T05:48:36.410Z,76.27
2019-02-03T05:51:05.744Z,68.97
2019-02-03T05:53:35.294Z,77.83
2019-02-03T05:56:05.683Z,71.13
2019-02-03T05:58:34.922Z,72.37
2019-02-03T06:01:04.303Z,77.07
2019-02-03T06:03:33.564Z,74.97
2019-02-03T06:06:02.812Z,72.60
2019-02-03T06:08:32.070Z,67.43
2019-02-03T06:11:01.317Z,71.87
2019-02-03T06:13:30.559Z,75.13
2019-02-03T06:15:59.838Z,71.20
2019-02-03T06:18:29.998Z,71.60
2019-02-03T06:20:59.961Z,67.03
2019-02-03T06:23:29.234Z,68.27
2019-02-03T06:25:58.526Z,65.77
2019-02-03T06:28:27.774Z,63.57
2019-02-03T06:31:00.221Z,66.97
2019-02-03T06:33:29.579Z,65.40
2019-02-03T06:35:58.839Z,62.53
2019-02-03T06:38:29.152Z,64.07
2019-02-03T06:40:58.443Z,65.17
2019-02-03T06:43:27.753Z,71.20
2019-02-03T06:46:02.530Z,69.23
2019-02-03T06:48:31.783Z,63.57
2019-02-03T06:51:01.099Z,61.60
2019-02-03T06:53:31.354Z,62.27
2019-02-03T06:56:02.579Z,69.03
2019-02-03T06:58:31.849Z,61.40
2019-02-03T07:01:01.092Z,61.47
2019-02-03T07:03:31.323Z,57.13
2019-02-03T07:06:00.621Z,60.93
2019-02-03T07:08:29.864Z,57.00
2019-02-03T07:10:59.121Z,49.87
2019-02-03T07:13:28.641Z,52.00
2019-02-03T07:15:57.888Z,54.57
2019-02-03T07:18:27.157Z,54.37
2019-02-03T07:20:56.412Z,52.80
2019-02-03T07:23:25.692Z,52.40
2019-02-03T07:25:55.046Z,48.47
2019-02-03T07:28:24.279Z,57.70
2019-02-03T07:30:54.555Z,49.43
2019-02-03T07:33:23.790Z,51.57
2019-02-03T07:35:53.172Z,54.03
2019-02-03T07:38:22.414Z,54.57
2019-02-03T07:40:51.962Z,54.10
2019-02-03T07:43:22.639Z,51.27
2019-02-03T07:45:51.893Z,49.33
2019-02-03T07:48:22.114Z,48.60
2019-02-03T07:50:51.548Z,51.47
2019-02-03T07:53:20.839Z,51.30
2019-02-03T07:55:50.134Z,46.37
2019-02-03T07:58:19.442Z,43.67
2019-02-03T08:00:48.699Z,44.20
2019-02-03T08:03:17.943Z,42.17
2019-02-03T08:05:47.324Z,47.57
2019-02-03T08:08:16.577Z,44.97
2019-02-03T08:10:45.811Z,47.30
2019-02-03T08:13:15.070Z,44.27
2019-02-03T08:15:44.307Z,41.40
2019-02-03T08:18:13.583Z,38.63
2019-02-03T08:20:42.882Z,35.30
2019-02-03T08:23:12.491Z,36.53
2019-02-03T08:25:42.000Z,32.90
2019-02-03T08:28:11.276Z,32.03
2019-02-03T08:30:40.533Z,34.63
2019-02-03T08:33:09.828Z,29.70
2019-02-03T08:35:39.181Z,29.40
2019-02-03T08:38:08.636Z,29.73
2019-02-03T08:40:37.972Z,30.90
2019-02-03T08:43:07.301Z,31.37
2019-02-03T08:45:37.315Z,33.83
2019-02-03T08:48:06.694Z,29.17
2019-02-03T08:50:37.586Z,26.67
2019-02-03T08:53:07.799Z,27.07
2019-02-03T08:55:37.073Z,23.40
2019-02-03T08:58:06.315Z,24.23
2019-02-03T09:00:37.452Z,29.17
2019-02-03T09:03:08.765Z,25.87
2019-02-03T09:05:38.088Z,28.20
2019-02-03T09:08:09.418Z,23.60
2019-02-03T09:10:48.041Z,24.83
2019-02-03T09:13:09.604Z,19.60
2019-02-03T09:15:39.784Z,18.67
2019-02-03T09:18:09.191Z,19.03
2019-02-03T09:20:38.523Z,18.10
2019-02-03T09:23:07.843Z,15.53
2019-02-03T09:25:38.220Z,16.27
2019-02-03T09:28:08.374Z,19.53
2019-02-03T09:30:39.048Z,17.73
2019-02-03T09:33:08.534Z,19.10
2019-02-03T09:35:37.837Z,14.10
2019-02-03T09:38:12.472Z,16.10
2019-02-03T09:40:40.733Z,16.03
2019-02-03T09:43:09.983Z,17.60
2019-02-03T09:45:39.235Z,13.87
2019-02-03T09:48:09.431Z,11.80
2019-02-03T09:50:38.717Z,19.30
2019-02-03T09:53:08.032Z,14.50
2019-02-03T09:55:37.271Z,16.77
2019-02-03T09:58:06.885Z,14.77
2019-02-03T10:00:39.330Z,14.13
2019-02-03T10:03:11.031Z,16.00
2019-02-03T10:05:40.269Z,9.47
2019-02-03T10:08:09.615Z,10.63
2019-02-03T10:10:41.234Z,11.53
2019-02-03T10:13:10.648Z,11.93
2019-02-03T10:15:39.894Z,14.17
2019-02-03T10:18:09.923Z,9.83
2019-02-03T10:20:39.298Z,11.77
2019-02-03T10:23:08.551Z,14.37
2019-02-03T10:25:37.795Z,10.33
2019-02-03T10:28:07.191Z,9.13
2019-02-03T10:30:37.986Z,11.70
2019-02-03T10:33:07.367Z,12.67
2019-02-03T10:35:36.706Z,10.40
2019-02-03T10:38:06.338Z,11.93
2019-02-03T10:40:39.560Z,9.47
2019-02-03T10:43:09.240Z,11.00
2019-02-03T10:45:38.543Z,10.33
2019-02-03T10:48:07.890Z,11.30
2019-02-03T10:50:39.151Z,11.30
2019-02-03T10:53:10.794Z,10.23
2019-02-03T10:55:40.096Z,9.80
2019-02-03T10:58:09.533Z,10.03
2019-02-03T11:00:43.141Z,10.63
2019-02-03T11:03:12.452Z,9.70
2019-02-03T11:05:45.242Z,10.93
2019-02-03T11:08:14.551Z,6.90
2019-02-03T11:10:45.223Z,9.50
2019-02-03T11:13:14.932Z,9.77
2019-02-03T11:15:44.316Z,12.27
2019-02-03T11:18:14.003Z,9.93
2019-02-03T11:20:43.239Z,8.10
2019-02-03T11:23:12.582Z,8.10
2019-02-03T11:25:41.845Z,11.87
2019-02-03T11:28:11.146Z,11.97
2019-02-03T11:30:40.425Z,8.83
2019-02-03T11:33:10.041Z,11.33
2019-02-03T11:35:39.406Z,8.57
2019-02-03T11:38:08.829Z,9.17
2019-02-03T11:40:41.353Z,9.57
2019-02-03T11:43:09.733Z,9.30
2019-02-03T11:45:41.655Z,9.20
2019-02-03T11:48:19.779Z,9.87
2019-02-03T11:50:50.474Z,10.00
2019-02-03T11:53:22.661Z,6.03
2019-02-03T11:55:53.899Z,6.50
2019-02-03T11:58:22.959Z,12.20
2019-02-03T12:00:52.267Z,8.57
2019-02-03T12:03:21.564Z,7.43
2019-02-03T12:05:50.759Z,9.60
2019-02-03T12:08:21.351Z,6.90
2019-02-03T12:10:50.657Z,9.73
2019-02-03T12:13:20.188Z,10.67
2019-02-03T12:15:49.506Z,7.43
2019-02-03T12:18:18.820Z,9.33
2019-02-03T12:20:48.071Z,14.10
2019-02-03T12:23:18.287Z,9.43
2019-02-03T12:25:48.533Z,10.07
2019-02-03T12:28:17.785Z,10.60
2019-02-03T12:30:47.032Z,9.93
2019-02-03T12:33:16.248Z,7.90
2019-02-03T12:35:45.488Z,9.07
2019-02-03T12:38:14.727Z,10.87
2019-02-03T12:40:44.052Z,10.50
2019-02-03T12:43:14.191Z,11.50
2019-02-03T12:45:43.415Z,8.80
2019-02-03T12:48:13.659Z,9.77
2019-02-03T12:50:42.963Z,9.53
2019-02-03T12:53:12.504Z,9.47
2019-02-03T12:55:44.660Z,8.23
2019-02-03T12:58:12.763Z,10.57
2019-02-03T13:00:42.011Z,10.97
2019-02-03T13:03:11.410Z,10.37
2019-02-03T13:05:40.661Z,11.77
2019-02-03T13:08:16.829Z,10.30
2019-02-03T13:10:46.098Z,11.60
2019-02-03T13:13:15.356Z,10.77
2019-02-03T13:15:50.630Z,14.57
2019-02-03T13:18:20.272Z,11.80
2019-02-03T13:20:49.478Z,9.70
2019-02-03T13:23:19.695Z,9.27
2019-02-03T13:25:50.889Z,8.07
2019-02-03T13:28:20.720Z,10.53
2019-02-03T13:30:50.654Z,11.47
2019-02-03T13:33:21.793Z,11.20
2019-02-03T13:35:50.814Z,13.63
2019-02-03T13:38:20.048Z,13.17
2019-02-03T13:40:49.295Z,10.07
2019-02-03T13:43:18.595Z,10.10
2019-02-03T13:45:47.849Z,10.40
2019-02-03T13:48:17.147Z,9.30
2019-02-03T13:50:46.395Z,12.33
2019-02-03T13:53:18.792Z,12.10
2019-02-03T13:55:48.054Z,12.10
2019-02-03T13:58:17.297Z,11.27
2019-02-03T14:00:47.129Z,11.43
2019-02-03T14:03:16.316Z,13.67
2019-02-03T14:05:45.713Z,9.53
2019-02-03T14:08:14.956Z,7.27
2019-02-03T14:10:44.539Z,10.03
2019-02-03T14:13:15.763Z,10.20
2019-02-03T14:15:47.676Z,10.03
2019-02-03T14:18:16.928Z,9.73
2019-02-03T14:20:47.157Z,6.67
2019-02-03T14:23:16.559Z,9.30
2019-02-03T14:25:45.789Z,8.93
2019-02-03T14:28:15.947Z,8.87
2019-02-03T14:30:45.196Z,8.07
2019-02-03T14:33:15.364Z,9.20
2019-02-03T14:35:45.896Z,5.53
2019-02-03T14:38:15.126Z,7.10
2019-02-03T14:40:46.436Z,5.90
2019-02-03T14:43:15.666Z,6.17
2019-02-03T14:45:44.898Z,6.60
2019-02-03T14:48:14.148Z,6.00
2019-02-03T14:50:44.238Z,7.80
2019-02-03T14:53:18.405Z,4.87
2019-02-03T14:55:51.624Z,7.73
2019-02-03T14:58:19.560Z,7.20
2019-02-03T15:00:49.359Z,7.23
2019-02-03T15:03:19.952Z,8.33
2019-02-03T15:05:49.238Z,6.33
2019-02-03T15:08:18.538Z,6.33
2019-02-03T15:10:48.715Z,7.73
2019-02-03T15:13:17.957Z,7.63
2019-02-03T15:15:47.195Z,5.07
2019-02-03T15:18:17.357Z,6.73
2019-02-03T15:20:46.583Z,7.80
2019-02-03T15:23:16.774Z,6.27
2019-02-03T15:25:46.058Z,6.43
2019-02-03T15:28:15.597Z,8.73
2019-02-03T15:30:47.125Z,4.87
2019-02-03T15:33:16.365Z,6.93
2019-02-03T15:35:45.659Z,7.37
2019-02-03T15:38:14.914Z,8.30
2019-02-03T15:40:44.426Z,7.47
2019-02-03T15:43:24.643Z,5.97
2019-02-03T15:45:44.585Z,8.00
2019-02-03T15:48:13.907Z,6.13
2019-02-03T15:50:45.926Z,6.07
2019-02-03T15:53:16.443Z,8.83
2019-02-03T15:55:45.665Z,6.87
2019-02-03T15:58:16.869Z,6.50
2019-02-03T16:00:49.150Z,5.37
2019-02-03T16:03:18.407Z,8.23
2019-02-03T16:05:47.625Z,5.83
2019-02-03T16:08:16.909Z,7.33
2019-02-03T16:10:46.223Z,6.07
2019-02-03T16:13:15.454Z,5.60
2019-02-03T16:15:45.701Z,5.97
2019-02-03T16:18:14.925Z,5.23
2019-02-03T16:20:44.455Z,8.17
2019-02-03T16:23:13.686Z,7.83
2019-02-03T16:25:43.967Z,8.47
2019-02-03T16:28:13.180Z,8.10
2019-02-03T16:30:43.728Z,8.53
2019-02-03T16:33:14.212Z,7.30
2019-02-03T16:35:43.471Z,6.87
2019-02-03T16:38:22.442Z,6.90
2019-02-03T16:40:44.643Z,6.20
2019-02-03T16:43:13.874Z,11.70
2019-02-03T16:45:43.137Z,8.33
2019-02-03T16:48:13.500Z,8.37
2019-02-03T16:50:43.725Z,8.30
2019-02-03T16:53:13.732Z,8.53
2019-02-03T16:55:43.938Z,9.13
2019-02-03T16:58:13.191Z,4.83
2019-02-03T17:00:47.270Z,11.13
2019-02-03T17:03:16.572Z,9.43
2019-02-03T17:05:45.848Z,10.27
2019-02-03T17:08:16.069Z,7.43
2019-02-03T17:10:46.420Z,8.90
2019-02-03T17:13:21.494Z,9.57
2019-02-03T17:15:53.772Z,8.80
2019-02-03T17:18:23.016Z,7.10
2019-02-03T17:21:01.544Z,13.03
2019-02-03T17:23:23.244Z,8.07
2019-02-03T17:25:55.674Z,8.60
2019-02-03T17:28:24.901Z,11.90
2019-02-03T17:30:54.211Z,9.60
2019-02-03T17:33:24.485Z,10.10
2019-02-03T17:35:54.972Z,10.53
2019-02-03T17:38:25.162Z,12.57
2019-02-03T17:40:54.471Z,13.47
2019-02-03T17:43:23.777Z,16.00
2019-02-03T17:45:53.088Z,11.63
2019-02-03T17:48:22.320Z,9.20
2019-02-03T17:50:52.111Z,14.47
2019-02-03T17:53:21.449Z,12.33
2019-02-03T17:55:50.750Z,12.53
2019-02-03T17:58:20.991Z,11.97
2019-02-03T18:00:55.270Z,13.17
2019-02-03T18:03:24.562Z,9.57
2019-02-03T18:05:53.832Z,11.40
2019-02-03T18:08:23.103Z,11.57
2019-02-03T18:10:53.326Z,14.73
2019-02-03T18:13:22.553Z,13.57
2019-02-03T18:15:52.764Z,17.57
2019-02-03T18:18:22.033Z,15.67
2019-02-03T18:20:51.677Z,18.40
2019-02-03T18:23:21.974Z,13.03
2019-02-03T18:25:51.374Z,13.07
2019-02-03T18:28:20.607Z,13.73
2019-02-03T18:30:49.938Z,14.17
2019-02-03T18:33:20.164Z,17.73
2019-02-03T18:35:49.429Z,14.23
2019-02-03T18:38:18.664Z,13.07
2019-02-03T18:40:47.939Z,13.83
2019-02-03T18:43:17.197Z,14.00
2019-02-03T18:45:46.504Z,15.87
2019-02-03T18:48:18.108Z,15.43
2019-02-03T18:50:49.066Z,16.03
2019-02-03T18:53:18.412Z,17.50
2019-02-03T18:55:48.682Z,16.43
2019-02-03T18:58:17.980Z,18.40
2019-02-03T19:00:47.267Z,16.03
2019-02-03T19:03:16.574Z,17.73
2019-02-03T19:05:45.844Z,17.50
2019-02-03T19:08:16.048Z,20.00
2019-02-03T19:10:45.307Z,17.60
2019-02-03T19:13:14.569Z,17.80
2019-02-03T19:15:44.099Z,18.83
2019-02-03T19:18:13.357Z,16.33
2019-02-03T19:20:44.134Z,16.47
2019-02-03T19:23:14.604Z,15.03
2019-02-03T19:25:43.918Z,14.20
2019-02-03T19:28:17.818Z,18.40
2019-02-03T19:30:48.974Z,16.30
2019-02-03T19:33:18.219Z,13.70
2019-02-03T19:35:49.456Z,11.10
2019-02-03T19:38:18.861Z,11.20
2019-02-03T19:40:48.122Z,11.97
2019-02-03T19:43:18.417Z,13.37
2019-02-03T19:45:47.708Z,13.63
2019-02-03T19:48:16.964Z,11.40
2019-02-03T19:50:49.355Z,12.83
2019-02-03T19:53:18.622Z,16.17
2019-02-03T19:55:47.844Z,13.83
2019-02-03T19:58:17.083Z,11.57
2019-02-03T20:00:46.598Z,12.70
2019-02-03T20:03:15.999Z,12.30
2019-02-03T20:05:45.220Z,14.37
2019-02-03T20:08:14.515Z,12.57
2019-02-03T20:10:43.841Z,15.10
2019-02-03T20:13:13.143Z,13.10
2019-02-03T20:15:42.482Z,13.43
2019-02-03T20:18:11.726Z,15.87
2019-02-03T20:20:41.991Z,12.57
2019-02-03T20:23:11.667Z,12.83
2019-02-03T20:25:46.103Z,12.00
2019-02-03T20:28:15.417Z,12.97
2019-02-03T20:30:44.691Z,11.70
2019-02-03T20:33:14.012Z,11.73
2019-02-03T20:35:44.735Z,14.57
2019-02-03T20:38:13.994Z,14.57
2019-02-03T20:40:44.490Z,12.67
2019-02-03T20:43:14.074Z,13.83
2019-02-03T20:45:49.410Z,12.87
2019-02-03T20:48:14.280Z,10.77
2019-02-03T20:50:43.768Z,12.03
2019-02-03T20:53:14.014Z,11.53
2019-02-03T20:55:43.341Z,12.60
2019-02-03T20:58:12.594Z,10.53
2019-02-03T21:00:41.956Z,10.70
2019-02-03T21:03:11.283Z,11.90
2019-02-03T21:05:40.529Z,11.93
2019-02-03T21:08:10.877Z,11.77
2019-02-03T21:10:40.137Z,14.10
2019-02-03T21:13:11.858Z,10.83
2019-02-03T21:15:41.311Z,13.27
2019-02-03T21:18:11.711Z,13.07
2019-02-03T21:20:41.057Z,12.93
2019-02-03T21:23:10.296Z,11.17
2019-02-03T21:25:39.531Z,10.33
2019-02-03T21:28:08.943Z,14.77
2019-02-03T21:30:38.961Z,14.17
2019-02-03T21:33:10.467Z,16.00
2019-02-03T21:35:39.876Z,13.20
2019-02-03T21:38:09.362Z,12.47
2019-02-03T21:40:38.686Z,10.93
2019-02-03T21:43:07.952Z,11.97
2019-02-03T21:45:44.767Z,14.23
2019-02-03T21:48:10.585Z,14.10
2019-02-03T21:50:39.823Z,12.63
2019-02-03T21:53:10.046Z,11.47
2019-02-03T21:55:39.268Z,13.60
2019-02-03T21:58:08.744Z,11.67
2019-02-03T22:00:38.094Z,11.00
2019-02-03T22:03:07.372Z,13.57
2019-02-03T22:05:36.645Z,13.33
2019-02-03T22:08:06.061Z,12.30
2019-02-03T22:10:37.531Z,14.90
2019-02-03T22:13:08.817Z,15.10
2019-02-03T22:15:38.062Z,15.33
2019-02-03T22:18:07.295Z,14.33
2019-02-03T22:20:37.577Z,12.73
2019-02-03T22:23:06.827Z,14.00
2019-02-03T22:25:36.353Z,11.67
2019-02-03T22:28:05.706Z,15.87
2019-02-03T22:30:37.182Z,14.63
2019-02-03T22:33:06.982Z,13.43
2019-02-03T22:35:37.233Z,17.63
2019-02-03T22:38:06.855Z,14.17
2019-02-03T22:40:43.026Z,11.75
2019-02-03T22:43:12.260Z,16.60
2019-02-03T22:45:41.530Z,15.33
2019-02-03T22:48:10.785Z,13.97
2019-02-03T22:50:40.304Z,12.20
2019-02-03T22:53:09.672Z,12.93
2019-02-03T22:55:38.911Z,14.90
2019-02-03T22:58:08.167Z,16.27
2019-02-03T23:00:53.587Z,17.47
2019-02-03T23:03:29.188Z,14.30
2019-02-03T23:05:58.484Z,18.70
2019-02-03T23:08:27.771Z,18.57
2019-02-03T23:10:57.024Z,17.73
2019-02-03T23:13:26.262Z,16.70
2019-02-03T23:15:55.510Z,20.40
2019-02-03T23:18:24.740Z,15.97
2019-02-03T23:20:54.911Z,17.03
2019-02-03T23:23:24.192Z,18.77
2019-02-03T23:25:53.491Z,15.37
2019-02-03T23:28:23.978Z,16.63
2019-02-03T23:30:53.227Z,16.20
2019-02-03T23:33:22.466Z,17.43
2019-02-03T23:35:51.807Z,14.93
2019-02-03T23:38:21.026Z,17.17
2019-02-03T23:40:52.935Z,15.53
2019-02-03T23:43:22.167Z,20.97
2019-02-03T23:45:52.401Z,13.83
2019-02-03T23:48:21.626Z,15.60
2019-02-03T23:50:51.833Z,15.67
2019-02-03T23:53:21.069Z,16.97
2019-02-03T23:55:50.489Z,16.37
2019-02-03T23:58:20.808Z,14.80
